createdAt,value
2022-10-18T00:01:05.880Z,101992.53
2022-10-18T00:03:33.920Z,101997.69
2022-10-18T00:06:01.945Z,101992.13
2022-10-18T00:08:32.448Z,101990.66
2022-10-18T00:10:59.747Z,101990.44
2022-10-18T00:13:27.164Z,101981.88
2022-10-18T00:15:58.411Z,101982.91
2022-10-18T00:18:26.219Z,101991.69
2022-10-18T00:21:06.481Z,101984.09
2022-10-18T00:23:35.425Z,101983.09
2022-10-18T00:26:06.966Z,101977.22
2022-10-18T00:28:37.061Z,101973.72
2022-10-18T00:31:12.680Z,101970.47
2022-10-18T00:33:40.477Z,101970.25
2022-10-18T00:36:07.918Z,101974.81
2022-10-18T00:38:35.618Z,101970.09
2022-10-18T00:41:07.314Z,101967.00
2022-10-18T00:43:52.462Z,101963.56
2022-10-18T00:46:19.982Z,101958.22
2022-10-18T00:48:48.036Z,101955.53
2022-10-18T00:51:18.367Z,101958.22
2022-10-18T00:53:46.323Z,101961.03
2022-10-18T00:56:20.378Z,101952.66
2022-10-18T00:58:51.863Z,101945.94
2022-10-18T01:01:20.617Z,101943.50
2022-10-18T01:03:51.254Z,101945.16
2022-10-18T01:06:18.559Z,101941.47
2022-10-18T01:09:04.255Z,101932.66
2022-10-18T01:11:51.037Z,101929.41
2022-10-18T01:14:37.907Z,101919.19
2022-10-18T01:17:27.239Z,101921.63
2022-10-18T01:20:18.681Z,101914.88
2022-10-18T01:22:56.806Z,101909.97
2022-10-18T01:25:29.824Z,101915.91
2022-10-18T01:28:09.302Z,101914.88
2022-10-18T01:30:38.706Z,101913.66
2022-10-18T01:33:29.193Z,101914.06
2022-10-18T01:36:21.281Z,101912.25
2022-10-18T01:38:53.114Z,101904.06
2022-10-18T01:41:27.068Z,101900.19
2022-10-18T01:43:59.663Z,101906.13
2022-10-18T01:46:29.125Z,101913.69
2022-10-18T01:48:57.037Z,101905.31
2022-10-18T01:51:31.902Z,101897.75
2022-10-18T01:53:59.111Z,101896.50
2022-10-18T01:56:51.967Z,101892.84
2022-10-18T01:59:53.470Z,101888.75
2022-10-18T02:02:26.991Z,101884.69
2022-10-18T02:05:21.090Z,101886.31
2022-10-18T02:08:05.617Z,101891.00
2022-10-18T02:10:51.098Z,101894.25
2022-10-18T02:13:21.547Z,101897.75
2022-10-18T02:15:54.744Z,101886.53
2022-10-18T02:18:29.050Z,101884.25
2022-10-18T02:21:00.129Z,101890.38
2022-10-18T02:23:27.754Z,101886.72
2022-10-18T02:25:55.405Z,101888.34
2022-10-18T02:31:15.737Z,101885.06
2022-10-18T02:34:06.362Z,101885.88
2022-10-18T02:36:40.565Z,101884.47
2022-10-18T02:39:18.337Z,101884.66
2022-10-18T02:41:45.811Z,101889.56
2022-10-18T02:44:13.201Z,101885.84
2022-10-18T02:46:40.700Z,101880.97
2022-10-18T02:49:10.475Z,101886.06
2022-10-18T02:51:37.784Z,101888.31
2022-10-18T02:54:05.492Z,101885.44
2022-10-18T02:56:33.001Z,101883.16
2022-10-18T02:59:00.590Z,101883.78
2022-10-18T03:01:28.032Z,101894.22
2022-10-18T03:03:55.438Z,101900.13
2022-10-18T03:06:22.837Z,101898.84
2022-10-18T03:08:50.310Z,101895.59
2022-10-18T03:11:17.635Z,101897.22
2022-10-18T03:13:45.347Z,101891.91
2022-10-18T03:16:12.827Z,101889.25
2022-10-18T03:18:40.145Z,101894.28
2022-10-18T03:21:08.114Z,101889.06
2022-10-18T03:23:35.961Z,101894.78
2022-10-18T03:26:04.331Z,101889.03
2022-10-18T03:28:31.709Z,101890.41
2022-10-18T03:31:03.591Z,101897.13
2022-10-18T03:33:32.631Z,101898.59
2022-10-18T03:36:00.065Z,101900.09
2022-10-18T03:38:27.398Z,101893.53
2022-10-18T03:40:54.749Z,101905.03
2022-10-18T03:43:22.408Z,101900.25
2022-10-18T03:45:49.869Z,101907.44
2022-10-18T03:48:17.194Z,101899.38
2022-10-18T03:50:44.437Z,101906.69
2022-10-18T03:53:20.432Z,101903.44
2022-10-18T03:55:54.837Z,101901.84
2022-10-18T03:58:22.573Z,101899.44
2022-10-18T04:00:57.504Z,101896.88
2022-10-18T04:03:25.828Z,101895.31
2022-10-18T04:05:56.414Z,101897.13
2022-10-18T04:08:24.686Z,101897.22
2022-10-18T04:10:52.608Z,101897.81
2022-10-18T04:13:23.795Z,101897.31
2022-10-18T04:15:51.940Z,101898.56
2022-10-18T04:18:19.862Z,101894.84
2022-10-18T04:20:47.611Z,101893.59
2022-10-18T04:23:16.081Z,101895.06
2022-10-18T04:25:46.536Z,101901.63
2022-10-18T04:28:13.865Z,101889.94
2022-10-18T04:30:50.084Z,101904.00
2022-10-18T04:33:17.838Z,101893.59
2022-10-18T04:35:46.494Z,101904.78
2022-10-18T04:38:13.893Z,101892.09
2022-10-18T04:40:44.615Z,101900.66
2022-10-18T04:43:14.727Z,101898.16
2022-10-18T04:45:47.582Z,101901.78
2022-10-18T04:48:16.288Z,101899.28
2022-10-18T04:50:43.774Z,101905.72
2022-10-18T04:53:11.503Z,101903.13
2022-10-18T04:55:59.084Z,101899.00
2022-10-18T04:58:26.893Z,101897.34
2022-10-18T05:00:57.459Z,101902.78
2022-10-18T05:03:30.869Z,101908.38
2022-10-18T05:06:08.840Z,101914.44
2022-10-18T05:08:44.130Z,101907.00
2022-10-18T05:11:14.403Z,101907.56
2022-10-18T05:13:41.642Z,101910.06
2022-10-18T05:16:08.998Z,101918.06
2022-10-18T05:18:36.351Z,101917.53
2022-10-18T05:21:06.436Z,101914.97
2022-10-18T05:23:36.891Z,101917.75
2022-10-18T05:26:06.622Z,101908.91
2022-10-18T05:28:40.189Z,101907.72
2022-10-18T05:31:11.282Z,101909.59
2022-10-18T05:33:42.066Z,101907.41
2022-10-18T05:36:10.446Z,101906.34
2022-10-18T05:38:42.337Z,101913.75
2022-10-18T05:41:11.347Z,101905.44
2022-10-18T05:43:41.679Z,101907.09
2022-10-18T05:46:15.554Z,101918.53
2022-10-18T05:48:50.817Z,101920.28
2022-10-18T05:51:20.045Z,101917.69
2022-10-18T05:53:55.826Z,101921.22
2022-10-18T05:56:28.395Z,101920.22
2022-10-18T05:58:59.469Z,101925.88
2022-10-18T06:01:33.473Z,101919.75
2022-10-18T06:04:04.073Z,101928.97
2022-10-18T06:06:31.855Z,101926.81
2022-10-18T06:09:02.243Z,101927.19
2022-10-18T06:11:30.661Z,101930.03
2022-10-18T06:14:01.234Z,101926.00
2022-10-18T06:16:34.961Z,101938.25
2022-10-18T06:19:04.941Z,101938.31
2022-10-18T06:21:34.803Z,101941.41
2022-10-18T06:24:04.584Z,101940.84
2022-10-18T06:26:31.748Z,101939.22
2022-10-18T06:28:59.310Z,101938.13
2022-10-18T06:31:27.084Z,101938.38
2022-10-18T06:33:56.633Z,101935.25
2022-10-18T06:36:24.235Z,101943.03
2022-10-18T06:38:52.266Z,101938.34
2022-10-18T06:41:22.584Z,101929.03
2022-10-18T06:43:53.170Z,101930.03
2022-10-18T06:46:23.662Z,101932.53
2022-10-18T06:48:53.933Z,101923.31
2022-10-18T06:51:21.617Z,101925.78
2022-10-18T06:54:06.252Z,101928.63
2022-10-18T06:56:40.025Z,101935.72
2022-10-18T06:59:07.494Z,101940.00
2022-10-18T07:01:34.920Z,101937.72
2022-10-18T07:04:05.929Z,101940.81
2022-10-18T07:06:36.771Z,101924.25
2022-10-18T07:09:07.767Z,101924.44
2022-10-18T07:11:38.958Z,101922.19
2022-10-18T07:14:12.561Z,101926.88
2022-10-18T07:16:42.713Z,101925.88
2022-10-18T07:19:16.759Z,101930.28
2022-10-18T07:21:44.483Z,101920.78
2022-10-18T07:24:15.018Z,101925.88
2022-10-18T07:26:45.550Z,101920.16
2022-10-18T07:29:19.575Z,101928.03
2022-10-18T07:31:47.419Z,101925.53
2022-10-18T07:34:18.337Z,101915.69
2022-10-18T07:36:49.543Z,101914.41
2022-10-18T07:39:17.190Z,101915.16
2022-10-18T07:41:44.976Z,101908.44
2022-10-18T07:44:17.715Z,101908.06
2022-10-18T07:46:45.001Z,101914.13
2022-10-18T07:49:12.745Z,101912.63
2022-10-18T07:51:45.628Z,101901.41
2022-10-18T07:54:16.050Z,101897.69
2022-10-18T07:56:44.342Z,101892.09
2022-10-18T07:59:16.048Z,101892.31
2022-10-18T08:01:49.296Z,101894.56
2022-10-18T08:04:16.734Z,101899.13
2022-10-18T08:06:48.833Z,101900.47
2022-10-18T08:09:25.296Z,101895.16
2022-10-18T08:11:55.369Z,101893.94
2022-10-18T08:14:25.967Z,101898.56
2022-10-18T08:16:53.931Z,101887.75
2022-10-18T08:19:29.153Z,101893.38
2022-10-18T08:21:56.420Z,101894.19
2022-10-18T08:24:24.317Z,101885.13
2022-10-18T08:26:51.787Z,101884.91
2022-10-18T08:29:23.313Z,101882.69
2022-10-18T08:31:55.644Z,101879.13
2022-10-18T08:34:26.362Z,101869.50
2022-10-18T08:36:56.561Z,101872.44
2022-10-18T08:39:24.173Z,101869.56
2022-10-18T08:42:22.650Z,101864.19
2022-10-18T08:44:52.390Z,101862.13
2022-10-18T08:47:34.445Z,101862.84
2022-10-18T08:50:12.310Z,101856.16
2022-10-18T08:52:55.009Z,101854.78
2022-10-18T08:55:27.612Z,101848.72
2022-10-18T08:58:03.211Z,101850.03
2022-10-18T09:00:37.924Z,101839.66
2022-10-18T09:03:30.748Z,101832.50
2022-10-18T09:06:13.394Z,101827.34
2022-10-18T09:09:00.873Z,101826.97
2022-10-18T09:11:46.554Z,101823.25
2022-10-18T09:14:42.593Z,101828.78
2022-10-18T09:17:47.909Z,101821.50
2022-10-18T09:20:28.565Z,101826.94
2022-10-18T09:23:12.098Z,101817.88
2022-10-18T09:25:49.115Z,101815.47
2022-10-18T09:29:00.171Z,101813.09
2022-10-18T09:31:52.015Z,101810.19
2022-10-18T09:34:29.119Z,101799.97
2022-10-18T09:36:57.266Z,101801.59
2022-10-18T09:39:51.981Z,101797.56
2022-10-18T09:42:54.343Z,101798.94
2022-10-18T09:45:35.384Z,101789.22
2022-10-18T09:48:07.177Z,101778.72
2022-10-18T09:50:40.294Z,101784.66
2022-10-18T09:53:10.488Z,101781.13
2022-10-18T09:56:03.334Z,101774.66
2022-10-18T09:58:41.784Z,101778.72
2022-10-18T10:01:12.929Z,101768.69
2022-10-18T10:03:41.220Z,101764.06
2022-10-18T10:06:12.106Z,101761.41
2022-10-18T10:08:56.846Z,101764.84
2022-10-18T10:11:40.276Z,101752.00
2022-10-18T10:14:11.648Z,101751.16
2022-10-18T10:17:05.186Z,101744.56
2022-10-18T10:19:37.138Z,101739.34
2022-10-18T10:22:13.698Z,101730.25
2022-10-18T10:24:48.774Z,101718.00
2022-10-18T10:27:32.222Z,101725.25
2022-10-18T10:30:06.814Z,101714.41
2022-10-18T10:32:50.683Z,101711.25
2022-10-18T10:35:54.572Z,101690.38
2022-10-18T10:38:30.969Z,101700.09
2022-10-18T10:41:02.565Z,101681.66
2022-10-18T10:43:39.338Z,101674.84
2022-10-18T10:46:13.903Z,101676.06
2022-10-18T10:48:50.680Z,101667.16
2022-10-18T10:51:35.575Z,101661.34
2022-10-18T10:54:07.856Z,101652.56
2022-10-18T10:57:05.413Z,101647.66
2022-10-18T10:59:46.850Z,101653.19
2022-10-18T11:02:21.498Z,101649.25
2022-10-18T11:04:54.428Z,101644.59
2022-10-18T11:07:35.690Z,101641.94
2022-10-18T11:10:11.869Z,101630.91
2022-10-18T11:12:45.834Z,101623.91
2022-10-18T11:15:23.460Z,101622.13
2022-10-18T11:18:16.098Z,101617.75
2022-10-18T11:20:49.193Z,101613.41
2022-10-18T11:23:18.896Z,101605.09
2022-10-18T11:25:55.802Z,101605.09
2022-10-18T11:28:46.156Z,101605.91
2022-10-18T11:31:46.146Z,101593.13
2022-10-18T11:34:38.329Z,101591.63
2022-10-18T11:37:29.186Z,101590.00
2022-10-18T11:40:20.454Z,101582.25
2022-10-18T11:43:00.529Z,101574.34
2022-10-18T11:45:59.704Z,101571.41
2022-10-18T11:48:33.800Z,101557.44
2022-10-18T11:51:34.097Z,101553.16
2022-10-18T11:54:20.284Z,101545.06
2022-10-18T11:57:07.532Z,101537.63
2022-10-18T11:59:51.958Z,101531.78
2022-10-18T12:02:48.071Z,101525.72
2022-10-18T12:05:23.635Z,101529.84
2022-10-18T12:08:01.261Z,101521.34
2022-10-18T12:10:45.742Z,101516.13
2022-10-18T12:13:29.275Z,101509.06
2022-10-18T12:15:56.830Z,101504.06
2022-10-18T12:18:25.456Z,101498.28
2022-10-18T12:20:58.240Z,101500.81
2022-10-18T12:23:42.412Z,101502.44
2022-10-18T12:26:11.358Z,101496.50
2022-10-18T12:29:18.816Z,101488.78
2022-10-18T12:31:50.139Z,101485.84
2022-10-18T12:34:23.520Z,101483.94
2022-10-18T12:37:00.042Z,101482.38
2022-10-18T12:39:43.443Z,101474.78
2022-10-18T12:42:30.864Z,101472.06
2022-10-18T12:45:05.072Z,101474.34
2022-10-18T12:47:33.302Z,101463.56
2022-10-18T12:50:05.235Z,101466.56
2022-10-18T12:52:32.814Z,101460.16
2022-10-18T12:55:16.798Z,101459.97
2022-10-18T12:57:57.189Z,101456.25
2022-10-18T13:00:30.629Z,101453.78
2022-10-18T13:03:09.795Z,101457.22
2022-10-18T13:05:53.488Z,101448.34
2022-10-18T13:08:27.785Z,101448.13
2022-10-18T13:11:09.933Z,101439.19
2022-10-18T13:14:01.825Z,101445.13
2022-10-18T13:16:53.505Z,101440.28
2022-10-18T13:20:24.049Z,101437.88
2022-10-18T13:23:01.216Z,101430.53
2022-10-18T13:25:45.815Z,101426.47
2022-10-18T13:28:16.085Z,101421.78
2022-10-18T13:30:52.162Z,101419.59
2022-10-18T13:33:49.327Z,101411.19
2022-10-18T13:36:24.212Z,101411.81
2022-10-18T13:38:57.812Z,101405.00
2022-10-18T13:41:51.567Z,101401.81
2022-10-18T13:44:31.297Z,101402.44
2022-10-18T13:47:02.495Z,101396.28
2022-10-18T13:49:39.754Z,101397.69
2022-10-18T13:52:44.645Z,101385.41
2022-10-18T13:55:34.532Z,101391.72
2022-10-18T13:58:19.777Z,101382.00
2022-10-18T14:01:02.431Z,101374.66
2022-10-18T14:03:55.729Z,101372.13
2022-10-18T14:06:21.263Z,101371.50
2022-10-18T14:09:26.289Z,101369.69
2022-10-18T14:12:26.694Z,101360.84
2022-10-18T14:15:16.020Z,101363.50
2022-10-18T14:17:53.435Z,101358.91
2022-10-18T14:20:29.959Z,101353.47
2022-10-18T14:23:16.172Z,101351.00
2022-10-18T14:25:43.921Z,101345.44
2022-10-18T14:28:19.703Z,101346.94
2022-10-18T14:30:55.074Z,101349.22
2022-10-18T14:33:32.461Z,101337.47
2022-10-18T14:36:22.511Z,101335.59
2022-10-18T14:38:58.895Z,101338.41
2022-10-18T14:41:31.937Z,101331.97
2022-10-18T14:44:24.881Z,101331.75
2022-10-18T14:46:55.767Z,101326.84
2022-10-18T14:49:23.187Z,101323.19
2022-10-18T14:51:54.931Z,101321.59
2022-10-18T14:54:27.606Z,101319.31
2022-10-18T14:57:00.649Z,101312.84
2022-10-18T14:59:31.583Z,101307.03
2022-10-18T15:02:01.982Z,101311.22
2022-10-18T15:04:29.794Z,101306.06
2022-10-18T15:06:57.945Z,101309.81
2022-10-18T15:09:26.324Z,101300.84
2022-10-18T15:11:54.232Z,101304.06
2022-10-18T15:14:22.033Z,101301.00
2022-10-18T15:16:55.235Z,101297.75
2022-10-18T15:19:30.038Z,101291.38
2022-10-18T15:22:31.357Z,101289.47
2022-10-18T15:25:22.683Z,101289.88
2022-10-18T15:27:55.851Z,101286.38
2022-10-18T15:30:25.314Z,101280.84
2022-10-18T15:32:55.721Z,101290.44
2022-10-18T15:35:26.367Z,101286.53
2022-10-18T15:37:56.623Z,101281.44
2022-10-18T15:40:23.835Z,101277.25
2022-10-18T15:42:56.940Z,101278.50
2022-10-18T15:45:24.099Z,101278.56
2022-10-18T15:47:58.915Z,101279.16
2022-10-18T15:50:38.397Z,101271.38
2022-10-18T15:53:52.204Z,101277.63
2022-10-18T15:56:35.877Z,101274.16
2022-10-18T15:59:26.027Z,101282.53
2022-10-18T16:01:56.542Z,101279.94
2022-10-18T16:04:29.858Z,101276.34
2022-10-18T16:06:58.260Z,101265.19
2022-10-18T16:09:28.396Z,101273.91
2022-10-18T16:11:57.308Z,101279.34
2022-10-18T16:14:26.782Z,101273.44
2022-10-18T16:17:06.752Z,101273.47
2022-10-18T16:19:36.875Z,101270.78
2022-10-18T16:22:10.293Z,101274.00
2022-10-18T16:24:40.933Z,101271.06
2022-10-18T16:27:14.611Z,101272.13
2022-10-18T16:29:47.588Z,101265.13
2022-10-18T16:32:14.808Z,101267.28
2022-10-18T16:34:47.955Z,101268.63
2022-10-18T16:37:20.959Z,101264.31
2022-10-18T16:39:51.056Z,101267.25
2022-10-18T16:42:18.283Z,101259.75
2022-10-18T16:44:45.726Z,101261.06
2022-10-18T16:47:12.952Z,101267.50
2022-10-18T16:49:40.258Z,101259.97
2022-10-18T16:52:08.564Z,101259.97
2022-10-18T16:54:37.931Z,101262.09
2022-10-18T16:57:09.106Z,101262.66
2022-10-18T16:59:40.070Z,101263.16
2022-10-18T17:02:11.014Z,101267.97
2022-10-18T17:04:44.680Z,101266.31
2022-10-18T17:09:54.498Z,101269.50
2022-10-18T17:12:28.032Z,101258.69
2022-10-18T17:14:58.358Z,101265.13
2022-10-18T17:17:26.410Z,101270.31
2022-10-18T17:19:54.562Z,101261.88
2022-10-18T17:22:25.224Z,101260.22
2022-10-18T17:24:52.453Z,101256.19
2022-10-18T17:27:34.110Z,101255.13
2022-10-18T17:30:12.134Z,101254.75
2022-10-18T17:32:40.003Z,101250.84
2022-10-18T17:35:07.563Z,101245.81
2022-10-18T17:37:35.174Z,101250.63
2022-10-18T17:40:06.559Z,101250.06
2022-10-18T17:42:34.684Z,101241.69
2022-10-18T17:45:06.011Z,101248.91
2022-10-18T17:47:33.532Z,101252.59
2022-10-18T17:50:01.051Z,101245.03
2022-10-18T17:52:29.633Z,101249.00
2022-10-18T17:54:59.734Z,101249.25
2022-10-18T17:57:26.985Z,101243.59
2022-10-18T17:59:54.567Z,101247.03
2022-10-18T18:02:22.202Z,101240.19
2022-10-18T18:04:49.528Z,101233.19
2022-10-18T18:07:16.876Z,101234.75
2022-10-18T18:09:44.162Z,101231.69
2022-10-18T18:12:11.498Z,101230.81
2022-10-18T18:14:38.733Z,101233.75
2022-10-18T18:17:05.899Z,101228.63
2022-10-18T18:19:33.220Z,101222.56
2022-10-18T18:22:00.746Z,101222.25
2022-10-18T18:24:28.316Z,101224.00
2022-10-18T18:26:55.886Z,101217.59
2022-10-18T18:29:25.436Z,101219.75
2022-10-18T18:31:53.331Z,101216.19
2022-10-18T18:34:20.551Z,101212.34
2022-10-18T18:36:48.678Z,101208.53
2022-10-18T18:39:24.589Z,101213.16
2022-10-18T18:41:52.800Z,101204.88
2022-10-18T18:44:20.755Z,101196.59
2022-10-18T18:46:48.895Z,101205.94
2022-10-18T18:49:16.162Z,101199.09
2022-10-18T18:51:43.459Z,101195.97
2022-10-18T18:54:12.260Z,101200.72
2022-10-18T18:56:41.086Z,101201.69
2022-10-18T18:59:08.434Z,101198.16
2022-10-18T19:01:40.191Z,101200.53
2022-10-18T19:04:09.412Z,101201.38
2022-10-18T19:06:39.977Z,101203.66
2022-10-18T19:09:20.594Z,101195.28
2022-10-18T19:11:50.627Z,101193.34
2022-10-18T19:14:18.307Z,101186.09
2022-10-18T19:16:48.167Z,101198.22
2022-10-18T19:19:18.074Z,101194.44
2022-10-18T19:21:46.420Z,101198.59
2022-10-18T19:24:14.253Z,101193.81
2022-10-18T19:26:45.739Z,101191.63
2022-10-18T19:29:21.060Z,101191.22
2022-10-18T19:31:49.279Z,101189.53
2022-10-18T19:34:19.647Z,101191.41
2022-10-18T19:36:48.330Z,101181.50
2022-10-18T19:39:25.959Z,101184.91
2022-10-18T19:41:55.659Z,101172.19
2022-10-18T19:44:24.448Z,101177.06
2022-10-18T19:46:52.009Z,101177.34
2022-10-18T19:49:22.059Z,101162.31
2022-10-18T19:51:49.728Z,101164.50
2022-10-18T19:54:17.057Z,101158.38
2022-10-18T19:56:44.699Z,101151.72
2022-10-18T19:59:15.746Z,101147.97
2022-10-18T20:01:44.174Z,101152.63
2022-10-18T20:04:12.754Z,101149.41
2022-10-18T20:06:40.882Z,101149.28
2022-10-18T20:09:14.694Z,101141.66
2022-10-18T20:11:45.078Z,101146.91
2022-10-18T20:14:12.457Z,101147.75
2022-10-18T20:16:39.728Z,101141.47
2022-10-18T20:19:08.402Z,101133.81
2022-10-18T20:21:36.483Z,101136.66
2022-10-18T20:24:05.232Z,101134.38
2022-10-18T20:26:33.120Z,101124.09
2022-10-18T20:29:02.961Z,101133.56
2022-10-18T20:31:32.631Z,101122.56
2022-10-18T20:34:02.548Z,101120.38
2022-10-18T20:36:31.564Z,101119.19
2022-10-18T20:38:59.248Z,101116.94
2022-10-18T20:41:29.433Z,101113.69
2022-10-18T20:44:02.292Z,101108.34
2022-10-18T20:46:31.839Z,101110.47
2022-10-18T20:49:02.684Z,101104.72
2022-10-18T20:51:33.374Z,101106.44
2022-10-18T20:56:34.369Z,101105.78
2022-10-18T20:59:01.838Z,101106.53
2022-10-18T21:01:34.787Z,101097.59
2022-10-18T21:04:04.985Z,101103.75
2022-10-18T21:06:34.861Z,101098.16
2022-10-18T21:09:05.859Z,101092.69
2022-10-18T21:11:38.138Z,101093.16
2022-10-18T21:14:12.434Z,101095.34
2022-10-18T21:16:41.064Z,101079.34
2022-10-18T21:19:12.211Z,101083.28
2022-10-18T21:21:41.126Z,101077.78
2022-10-18T21:24:08.543Z,101072.69
2022-10-18T21:26:36.116Z,101061.19
2022-10-18T21:29:04.718Z,101060.78
2022-10-18T21:31:37.266Z,101061.28
2022-10-18T21:34:15.544Z,101058.44
2022-10-18T21:36:44.828Z,101054.53
2022-10-18T21:39:15.370Z,101055.97
2022-10-18T21:41:42.960Z,101048.47
2022-10-18T21:44:11.047Z,101050.97
2022-10-18T21:46:39.212Z,101043.50
2022-10-18T21:49:07.546Z,101043.72
2022-10-18T21:51:35.184Z,101039.84
2022-10-18T21:54:02.492Z,101038.47
2022-10-18T21:56:34.764Z,101022.97
2022-10-18T21:59:02.548Z,101029.31
2022-10-18T22:01:38.373Z,101013.53
2022-10-18T22:04:08.389Z,101012.72
2022-10-18T22:06:39.758Z,101008.56
2022-10-18T22:09:08.065Z,101009.63
2022-10-18T22:11:43.218Z,101004.63
2022-10-18T22:14:10.806Z,101007.19
2022-10-18T22:16:38.802Z,101001.25
2022-10-18T22:19:07.243Z,101008.81
2022-10-18T22:21:34.754Z,101001.53
2022-10-18T22:24:06.965Z,100996.19
2022-10-18T22:26:37.184Z,100998.63
2022-10-18T22:29:13.354Z,100982.19
2022-10-18T22:35:25.190Z,100984.97
2022-10-18T22:37:54.126Z,100976.56
2022-10-18T22:40:21.451Z,100972.88
2022-10-18T22:42:48.836Z,100964.69
2022-10-18T22:45:16.328Z,100967.13
2022-10-18T22:47:44.088Z,100964.88
2022-10-18T22:50:17.901Z,100965.00
2022-10-18T22:52:51.515Z,100961.22
2022-10-18T22:55:21.804Z,100958.88
2022-10-18T22:57:55.784Z,100959.13
2022-10-18T23:00:26.145Z,100957.88
2022-10-18T23:02:59.903Z,100965.00
2022-10-18T23:05:27.301Z,100962.50
2022-10-18T23:07:54.708Z,100959.94
2022-10-18T23:10:22.205Z,100962.31
2022-10-18T23:12:49.752Z,100956.97
2022-10-18T23:15:17.080Z,100961.81
2022-10-18T23:17:44.574Z,100958.72
2022-10-18T23:20:17.703Z,100957.66
2022-10-18T23:22:45.496Z,100951.31
2022-10-18T23:25:13.107Z,100946.09
2022-10-18T23:27:40.740Z,100955.25
2022-10-18T23:30:09.005Z,100950.97
2022-10-18T23:32:41.218Z,100950.06
2022-10-18T23:35:08.939Z,100948.22
2022-10-18T23:37:36.813Z,100944.50
2022-10-18T23:40:08.117Z,100938.16
2022-10-18T23:42:35.514Z,100930.16
2022-10-18T23:45:02.936Z,100927.50
2022-10-18T23:47:30.633Z,100927.16
2022-10-18T23:49:59.157Z,100917.00
2022-10-18T23:52:26.510Z,100912.72
2022-10-18T23:54:54.225Z,100922.19
2022-10-18T23:57:21.677Z,100911.09
2022-10-18T23:59:49.137Z,100918.34
